Mare Island — WDC2198 — position and weather

sailwx.info

Track history (hours):
 
Tides and Currents Weather Stations Pressure Air Temp Water Temp Dewpoint Dewpoint Depression Visibility Wind Speed Wind Dir Waves Ship Positions

Mare Island

Owner: San Francisco Bay Area Water Emergency Transportation Authority, Vallejo, CA. More information available from US FCC via Universal Licensing System and Coast Guard Vessel Documentation Center.

Last reported at 2017-Dec-11 17:01 UTC. Time now 2017-Dec-14 00:34 UTC.
Position N 38°05' W 122°15'.

Length 42 m; draft 3 m.

Type: Passenger vessel. MMSI: 366989380.

Date/timePositionNaut miles runAvg speedWind from/ knotsBaromVisibWave heightAir tempDewpointWater temp
2017-Dec-11 17:01N 38°05' W 122°15'1326.5
2017-Dec-11 16:30N 37°55' W 122°25'714.2
2017-Dec-11 16:00N 37°48' W 122°24'1224.1
2017-Dec-11 15:30N 37°60' W 122°25'918.5
2017-Dec-11 15:00N 38°06' W 122°16'0 0.5
2017-Dec-11 14:28N 38°06' W 122°16'0 0.0
2017-Dec-11 11:22N 38°06' W 122°16'0 0.0
2017-Dec-11 10:46N 38°06' W 122°16'0 0.0
2017-Dec-11 10:04N 38°06' W 122°16'0 0.0
2017-Dec-11 09:58N 38°06' W 122°16'0 0.0
2017-Dec-11 09:28N 38°06' W 122°16'0 0.0
2017-Dec-11 07:04N 38°06' W 122°16'0 0.0
2017-Dec-11 06:52N 38°06' W 122°16'0 0.0
2017-Dec-11 01:56N 38°06' W 122°16'1 3.3
2017-Dec-11 01:30N 38°05' W 122°15'1428.3
2017-Dec-11 01:01N 37°54' W 122°25'612.0
2017-Dec-11 00:30N 37°48' W 122°24'1325.8
2017-Dec-11 00:00N 38°01' W 122°24'8 3.5
2017-Dec-10 21:41N 38°06' W 122°16'2 8.3
2017-Dec-10 21:29N 38°04' W 122°15'1430.1
2017-Dec-10 21:01N 37°53' W 122°25'5 9.9
2017-Dec-10 20:30N 37°48' W 122°24'1325.2
2017-Dec-10 20:01N 38°00' W 122°24'9 9.7
2017-Dec-10 19:08N 38°06' W 122°16'0 0.2
2017-Dec-10 17:31N 38°06' W 122°16'0 0.0
2017-Dec-10 17:01N 38°06' W 122°16'0 0.0
2017-Dec-10 16:55N 38°06' W 122°16'0 0.0
2017-Dec-10 16:25N 38°06' W 122°16'0 0.0
2017-Dec-10 15:55N 38°06' W 122°16'0 0.0
2017-Dec-10 15:25N 38°06' W 122°16'0 0.0
2017-Dec-10 08:31N 38°06' W 122°16'0 0.0
2017-Dec-10 01:58N 38°06' W 122°16'2 3.7
2017-Dec-10 01:30N 38°05' W 122°15'1427.8
2017-Dec-10 01:01N 37°54' W 122°25'611.8
2017-Dec-10 00:30N 37°48' W 122°24'1223.7
2017-Dec-10 00:01N 37°60' W 122°25'10 4.2
2017-Dec-09 21:42N 38°06' W 122°16'2 8.4
2017-Dec-09 21:28N 38°04' W 122°15'1430.5
2017-Dec-09 21:01N 37°53' W 122°25'510.5
2017-Dec-09 20:31N 37°48' W 122°24'1224.0
2017-Dec-09 20:00N 37°60' W 122°25'1010.6
2017-Dec-09 19:06N 38°06' W 122°16'0 0.0
2017-Dec-09 04:30N 38°06' W 122°16'1 3.0
2017-Dec-09 04:00N 38°05' W 122°15'1326.2
2017-Dec-09 03:31N 37°55' W 122°25'713.1
2017-Dec-09 03:01N 37°48' W 122°24'1 2.5
2017-Dec-09 02:31N 37°49' W 122°25'1631.1
2017-Dec-09 02:00N 38°03' W 122°17'3 5.0
2017-Dec-09 01:27N 38°06' W 122°16'715.3
2017-Dec-09 01:00N 38°01' W 122°22'1427.2
2017-Dec-09 00:30N 37°48' W 122°24'1 1.8
2017-Dec-09 00:00N 37°49' W 122°23'1529.4
2017-Dec-08 23:30N 38°03' W 122°18'4 6.8
2017-Dec-08 22:57N 38°06' W 122°16'0 0.1
2017-Dec-08 20:29N 38°06' W 122°16'4 9.5
2017-Dec-08 20:01N 38°02' W 122°19'1428.8
2017-Dec-08 19:30N 37°49' W 122°25'1 2.4
2017-Dec-08 19:00N 37°48' W 122°24'1020.3
2017-Dec-08 18:31N 37°58' W 122°26'12 8.4
2017-Dec-08 17:07N 38°05' W 122°15'1 7.7
2017-Dec-08 17:00N 38°05' W 122°15'1326.1
2017-Dec-08 16:31N 37°55' W 122°26'714.4
2017-Dec-08 16:00N 37°48' W 122°24'1121.9
2017-Dec-08 15:30N 37°59' W 122°26'1121.2
2017-Dec-08 15:00N 38°06' W 122°16'0 0.4
2017-Dec-08 14:16N 38°06' W 122°16'0 0.0
2017-Dec-08 13:56N 38°06' W 122°16'0 0.0
2017-Dec-08 12:20N 38°06' W 122°16'0 0.0
2017-Dec-08 04:30N 38°06' W 122°16'2 3.7
2017-Dec-08 04:00N 38°04' W 122°15'1326.8
2017-Dec-08 03:31N 37°54' W 122°25'510.2
2017-Dec-08 03:01N 37°49' W 122°24'1 1.7
2017-Dec-08 02:31N 37°49' W 122°25'1530.7
2017-Dec-08 02:01N 38°03' W 122°18'3 5.8
2017-Dec-08 01:25N 38°06' W 122°16'716.2
2017-Dec-08 01:00N 38°01' W 122°22'1427.4
2017-Dec-08 00:31N 37°48' W 122°24'0 1.0
2017-Dec-08 00:01N 37°48' W 122°23'1529.4
2017-Dec-07 23:31N 38°03' W 122°19'4 1.4
2017-Dec-07 20:25N 38°06' W 122°16'4 8.6
2017-Dec-07 20:01N 38°03' W 122°18'1530.5
2017-Dec-07 19:30N 37°49' W 122°25'1 2.4
2017-Dec-07 19:00N 37°48' W 122°24'1020.3
2017-Dec-07 18:30N 37°58' W 122°26'1123.0
2017-Dec-07 18:01N 38°06' W 122°16'0 0.0
2017-Dec-07 17:09N 38°06' W 122°16'1 7.0
2017-Dec-07 17:00N 38°05' W 122°15'1325.6
2017-Dec-07 16:30N 37°55' W 122°26'815.4
2017-Dec-07 16:01N 37°48' W 122°24'816.6
2017-Dec-07 15:30N 37°56' W 122°27'1325.8
2017-Dec-07 15:00N 38°06' W 122°16'0 0.7
2017-Dec-07 14:20N 38°06' W 122°16'0 0.0
2017-Dec-07 04:16N 38°06' W 122°16'2 7.5
2017-Dec-07 04:00N 38°04' W 122°15'1427.1
2017-Dec-07 03:31N 37°53' W 122°25'5 9.8
2017-Dec-07 03:00N 37°49' W 122°24'1 2.6
2017-Dec-07 02:31N 37°50' W 122°25'1632.5
2017-Dec-07 02:01N 38°04' W 122°15'2 2.9
2017-Dec-07 01:27N 38°06' W 122°16'715.0
2017-Dec-07 01:00N 38°01' W 122°22'1427.1
2017-Dec-07 00:30N 37°48' W 122°24'2 3.6
2017-Dec-07 00:01N 37°50' W 122°24'1529.8
2017-Dec-06 23:30N 38°04' W 122°17'  
2017-Dec-04 04:24N 38°06' W 122°16'0 0.5
2017-Dec-04 04:00N 38°06' W 122°16'1121.4
2017-Dec-04 03:31N 37°59' W 122°26'1121.7
2017-Dec-04 03:00N 37°48' W 122°24'1 2.4
2017-Dec-04 02:30N 37°49' W 122°25'4 8.9
2017-Dec-04 02:01N 37°53' W 122°26'1527.0
2017-Dec-04 01:28N 38°05' W 122°15'1 1.6
2017-Dec-04 00:54N 38°06' W 122°15'716.9
2017-Dec-04 00:31N 38°01' W 122°22'1326.0
2017-Dec-04 00:00N 37°49' W 122°25'1 2.4
2017-Dec-03 23:31N 37°48' W 122°24'1223.6
2017-Dec-03 23:00N 37°60' W 122°25'10 4.1
2017-Dec-03 20:40N 38°06' W 122°16'0 1.4
2017-Dec-03 20:24N 38°06' W 122°16'616.4
2017-Dec-03 20:01N 38°01' W 122°22'1325.8
2017-Dec-03 19:30N 37°49' W 122°25'1 2.4
2017-Dec-03 19:00N 37°48' W 122°24'1325.0
2017-Dec-03 18:30N 38°00' W 122°24'8 9.6
2017-Dec-03 17:38N 38°06' W 122°16'0 0.0
2017-Dec-03 04:04N 38°06' W 122°16'0 0.0
2017-Dec-03 04:00N 38°06' W 122°16'510.8
2017-Dec-03 03:30N 38°02' W 122°21'1429.0
2017-Dec-03 03:00N 37°48' W 122°24'1 2.4
2017-Dec-03 02:31N 37°49' W 122°25'0 0.5
2017-Dec-03 02:01N 37°49' W 122°25'1631.2
2017-Dec-03 01:30N 38°03' W 122°17'3 5.1
2017-Dec-03 00:56N 38°06' W 122°16'613.5
2017-Dec-03 00:31N 38°02' W 122°21'1427.3
2017-Dec-03 00:00N 37°49' W 122°25'1 2.4
2017-Dec-02 23:31N 37°48' W 122°24'1019.2
2017-Dec-02 23:00N 37°57' W 122°27'1224.2
2017-Dec-02 22:30N 38°06' W 122°16'0 0.0
2017-Dec-02 20:20N 38°06' W 122°16'514.2
2017-Dec-02 20:01N 38°02' W 122°19'1428.7
2017-Dec-02 19:30N 37°49' W 122°25'1 2.4
2017-Dec-02 19:01N 37°48' W 122°24'1224.7
2017-Dec-02 18:30N 38°00' W 122°24'910.0
2017-Dec-02 17:38N 38°06' W 122°16'0 0.0
2017-Dec-02 05:23N 38°06' W 122°16'2 4.6
2017-Dec-02 05:01N 38°05' W 122°15'1427.6
2017-Dec-02 04:31N 37°53' W 122°25'611.2
2017-Dec-02 04:01N 37°48' W 122°24'815.8
2017-Dec-02 03:30N 37°55' W 122°27'1325.9
2017-Dec-02 03:00N 38°04' W 122°15'1 1.3
2017-Dec-02 02:09N 38°05' W 122°15'1 9.4
2017-Dec-02 02:00N 38°04' W 122°15'1325.5
2017-Dec-02 01:31N 37°54' W 122°25'713.5
2017-Dec-02 01:00N 37°48' W 122°24'1325.5
2017-Dec-02 00:30N 38°01' W 122°24'8 2.0
2017-Dec-01 20:28N 38°06' W 122°16'4 9.1
2017-Dec-01 20:01N 38°03' W 122°19'1529.4
2017-Dec-01 19:31N 37°49' W 122°25'1 2.4
2017-Dec-01 19:01N 37°48' W 122°24'1325.6
2017-Dec-01 18:30N 38°01' W 122°23'814.2
2017-Dec-01 17:57N 38°06' W 122°16'0 0.0
2017-Dec-01 17:30N 38°06' W 122°16'  
Track history (hours):
 
Tides and Currents Weather Stations Pressure Air Temp Water Temp Dewpoint Dewpoint Depression Visibility Wind Speed Wind Dir Waves Ship Positions

Mare Island

Owner: San Francisco Bay Area Water Emergency Transportation Authority, Vallejo, CA. More information available from US FCC via Universal Licensing System and Coast Guard Vessel Documentation Center.

Last reported at 2017-Dec-11 17:01 UTC. Time now 2017-Dec-14 00:34 UTC.
Position N 38°05' W 122°15'.

Length 42 m; draft 3 m.

Type: Passenger vessel. MMSI: 366989380.

Date/timePositionNaut miles runAvg speedWind from/ knotsBaromVisibWave heightAir tempDewpointWater temp
2017-Dec-11 17:01N 38°05' W 122°15'1326.5
2017-Dec-11 16:30N 37°55' W 122°25'714.2
2017-Dec-11 16:00N 37°48' W 122°24'1224.1
2017-Dec-11 15:30N 37°60' W 122°25'918.5
2017-Dec-11 15:00N 38°06' W 122°16'0 0.5
2017-Dec-11 14:28N 38°06' W 122°16'0 0.0
2017-Dec-11 11:22N 38°06' W 122°16'0 0.0
2017-Dec-11 10:46N 38°06' W 122°16'0 0.0
2017-Dec-11 10:04N 38°06' W 122°16'0 0.0
2017-Dec-11 09:58N 38°06' W 122°16'0 0.0
2017-Dec-11 09:28N 38°06' W 122°16'0 0.0
2017-Dec-11 07:04N 38°06' W 122°16'0 0.0
2017-Dec-11 06:52N 38°06' W 122°16'0 0.0
2017-Dec-11 01:56N 38°06' W 122°16'1 3.3
2017-Dec-11 01:30N 38°05' W 122°15'1428.3
2017-Dec-11 01:01N 37°54' W 122°25'612.0
2017-Dec-11 00:30N 37°48' W 122°24'1325.8
2017-Dec-11 00:00N 38°01' W 122°24'8 3.5
2017-Dec-10 21:41N 38°06' W 122°16'2 8.3
2017-Dec-10 21:29N 38°04' W 122°15'1430.1
2017-Dec-10 21:01N 37°53' W 122°25'5 9.9
2017-Dec-10 20:30N 37°48' W 122°24'1325.2
2017-Dec-10 20:01N 38°00' W 122°24'9 9.7
2017-Dec-10 19:08N 38°06' W 122°16'0 0.2
2017-Dec-10 17:31N 38°06' W 122°16'0 0.0
2017-Dec-10 17:01N 38°06' W 122°16'0 0.0
2017-Dec-10 16:55N 38°06' W 122°16'0 0.0
2017-Dec-10 16:25N 38°06' W 122°16'0 0.0
2017-Dec-10 15:55N 38°06' W 122°16'0 0.0
2017-Dec-10 15:25N 38°06' W 122°16'0 0.0
2017-Dec-10 08:31N 38°06' W 122°16'0 0.0
2017-Dec-10 01:58N 38°06' W 122°16'2 3.7
2017-Dec-10 01:30N 38°05' W 122°15'1427.8
2017-Dec-10 01:01N 37°54' W 122°25'611.8
2017-Dec-10 00:30N 37°48' W 122°24'1223.7
2017-Dec-10 00:01N 37°60' W 122°25'10 4.2
2017-Dec-09 21:42N 38°06' W 122°16'2 8.4
2017-Dec-09 21:28N 38°04' W 122°15'1430.5
2017-Dec-09 21:01N 37°53' W 122°25'510.5
2017-Dec-09 20:31N 37°48' W 122°24'1224.0
2017-Dec-09 20:00N 37°60' W 122°25'1010.6
2017-Dec-09 19:06N 38°06' W 122°16'0 0.0
2017-Dec-09 04:30N 38°06' W 122°16'1 3.0
2017-Dec-09 04:00N 38°05' W 122°15'1326.2
2017-Dec-09 03:31N 37°55' W 122°25'713.1
2017-Dec-09 03:01N 37°48' W 122°24'1 2.5
2017-Dec-09 02:31N 37°49' W 122°25'1631.1
2017-Dec-09 02:00N 38°03' W 122°17'3 5.0
2017-Dec-09 01:27N 38°06' W 122°16'715.3
2017-Dec-09 01:00N 38°01' W 122°22'1427.2
2017-Dec-09 00:30N 37°48' W 122°24'1 1.8
2017-Dec-09 00:00N 37°49' W 122°23'1529.4
2017-Dec-08 23:30N 38°03' W 122°18'4 6.8
2017-Dec-08 22:57N 38°06' W 122°16'0 0.1
2017-Dec-08 20:29N 38°06' W 122°16'4 9.5
2017-Dec-08 20:01N 38°02' W 122°19'1428.8
2017-Dec-08 19:30N 37°49' W 122°25'1 2.4
2017-Dec-08 19:00N 37°48' W 122°24'1020.3
2017-Dec-08 18:31N 37°58' W 122°26'12 8.4
2017-Dec-08 17:07N 38°05' W 122°15'1 7.7
2017-Dec-08 17:00N 38°05' W 122°15'1326.1
2017-Dec-08 16:31N 37°55' W 122°26'714.4
2017-Dec-08 16:00N 37°48' W 122°24'1121.9
2017-Dec-08 15:30N 37°59' W 122°26'1121.2
2017-Dec-08 15:00N 38°06' W 122°16'0 0.4
2017-Dec-08 14:16N 38°06' W 122°16'0 0.0
2017-Dec-08 13:56N 38°06' W 122°16'0 0.0
2017-Dec-08 12:20N 38°06' W 122°16'0 0.0
2017-Dec-08 04:30N 38°06' W 122°16'2 3.7
2017-Dec-08 04:00N 38°04' W 122°15'1326.8
2017-Dec-08 03:31N 37°54' W 122°25'510.2
2017-Dec-08 03:01N 37°49' W 122°24'1 1.7
2017-Dec-08 02:31N 37°49' W 122°25'1530.7
2017-Dec-08 02:01N 38°03' W 122°18'3 5.8
2017-Dec-08 01:25N 38°06' W 122°16'716.2
2017-Dec-08 01:00N 38°01' W 122°22'1427.4
2017-Dec-08 00:31N 37°48' W 122°24'0 1.0
2017-Dec-08 00:01N 37°48' W 122°23'1529.4
2017-Dec-07 23:31N 38°03' W 122°19'4 1.4
2017-Dec-07 20:25N 38°06' W 122°16'4 8.6
2017-Dec-07 20:01N 38°03' W 122°18'1530.5
2017-Dec-07 19:30N 37°49' W 122°25'1 2.4
2017-Dec-07 19:00N 37°48' W 122°24'1020.3
2017-Dec-07 18:30N 37°58' W 122°26'1123.0
2017-Dec-07 18:01N 38°06' W 122°16'0 0.0
2017-Dec-07 17:09N 38°06' W 122°16'1 7.0
2017-Dec-07 17:00N 38°05' W 122°15'1325.6
2017-Dec-07 16:30N 37°55' W 122°26'815.4
2017-Dec-07 16:01N 37°48' W 122°24'816.6
2017-Dec-07 15:30N 37°56' W 122°27'1325.8
2017-Dec-07 15:00N 38°06' W 122°16'0 0.7
2017-Dec-07 14:20N 38°06' W 122°16'0 0.0
2017-Dec-07 04:16N 38°06' W 122°16'2 7.5
2017-Dec-07 04:00N 38°04' W 122°15'1427.1
2017-Dec-07 03:31N 37°53' W 122°25'5 9.8
2017-Dec-07 03:00N 37°49' W 122°24'1 2.6
2017-Dec-07 02:31N 37°50' W 122°25'1632.5
2017-Dec-07 02:01N 38°04' W 122°15'2 2.9
2017-Dec-07 01:27N 38°06' W 122°16'715.0
2017-Dec-07 01:00N 38°01' W 122°22'1427.1
2017-Dec-07 00:30N 37°48' W 122°24'2 3.6
2017-Dec-07 00:01N 37°50' W 122°24'1529.8
2017-Dec-06 23:30N 38°04' W 122°17'  
2017-Dec-04 04:24N 38°06' W 122°16'0 0.5
2017-Dec-04 04:00N 38°06' W 122°16'1121.4
2017-Dec-04 03:31N 37°59' W 122°26'1121.7
2017-Dec-04 03:00N 37°48' W 122°24'1 2.4
2017-Dec-04 02:30N 37°49' W 122°25'4 8.9
2017-Dec-04 02:01N 37°53' W 122°26'1527.0
2017-Dec-04 01:28N 38°05' W 122°15'1 1.6
2017-Dec-04 00:54N 38°06' W 122°15'716.9
2017-Dec-04 00:31N 38°01' W 122°22'1326.0
2017-Dec-04 00:00N 37°49' W 122°25'1 2.4
2017-Dec-03 23:31N 37°48' W 122°24'1223.6
2017-Dec-03 23:00N 37°60' W 122°25'10 4.1
2017-Dec-03 20:40N 38°06' W 122°16'0 1.4
2017-Dec-03 20:24N 38°06' W 122°16'616.4
2017-Dec-03 20:01N 38°01' W 122°22'1325.8
2017-Dec-03 19:30N 37°49' W 122°25'1 2.4
2017-Dec-03 19:00N 37°48' W 122°24'1325.0
2017-Dec-03 18:30N 38°00' W 122°24'8 9.6
2017-Dec-03 17:38N 38°06' W 122°16'0 0.0
2017-Dec-03 04:04N 38°06' W 122°16'0 0.0
2017-Dec-03 04:00N 38°06' W 122°16'510.8
2017-Dec-03 03:30N 38°02' W 122°21'1429.0
2017-Dec-03 03:00N 37°48' W 122°24'1 2.4
2017-Dec-03 02:31N 37°49' W 122°25'0 0.5
2017-Dec-03 02:01N 37°49' W 122°25'1631.2
2017-Dec-03 01:30N 38°03' W 122°17'3 5.1
2017-Dec-03 00:56N 38°06' W 122°16'613.5
2017-Dec-03 00:31N 38°02' W 122°21'1427.3
2017-Dec-03 00:00N 37°49' W 122°25'1 2.4
2017-Dec-02 23:31N 37°48' W 122°24'1019.2
2017-Dec-02 23:00N 37°57' W 122°27'1224.2
2017-Dec-02 22:30N 38°06' W 122°16'0 0.0
2017-Dec-02 20:20N 38°06' W 122°16'514.2
2017-Dec-02 20:01N 38°02' W 122°19'1428.7
2017-Dec-02 19:30N 37°49' W 122°25'1 2.4
2017-Dec-02 19:01N 37°48' W 122°24'1224.7
2017-Dec-02 18:30N 38°00' W 122°24'910.0
2017-Dec-02 17:38N 38°06' W 122°16'0 0.0
2017-Dec-02 05:23N 38°06' W 122°16'2 4.6
2017-Dec-02 05:01N 38°05' W 122°15'1427.6
2017-Dec-02 04:31N 37°53' W 122°25'611.2
2017-Dec-02 04:01N 37°48' W 122°24'815.8
2017-Dec-02 03:30N 37°55' W 122°27'1325.9
2017-Dec-02 03:00N 38°04' W 122°15'1 1.3
2017-Dec-02 02:09N 38°05' W 122°15'1 9.4
2017-Dec-02 02:00N 38°04' W 122°15'1325.5
2017-Dec-02 01:31N 37°54' W 122°25'713.5
2017-Dec-02 01:00N 37°48' W 122°24'1325.5
2017-Dec-02 00:30N 38°01' W 122°24'8 2.0
2017-Dec-01 20:28N 38°06' W 122°16'4 9.1
2017-Dec-01 20:01N 38°03' W 122°19'1529.4
2017-Dec-01 19:31N 37°49' W 122°25'1 2.4
2017-Dec-01 19:01N 37°48' W 122°24'1325.6
2017-Dec-01 18:30N 38°01' W 122°23'814.2
2017-Dec-01 17:57N 38°06' W 122°16'0 0.0
2017-Dec-01 17:30N 38°06' W 122°16'  

Dump ship's entire track history